Time;durP1;ratioP1;P1;durP2;ratioP2;P2;SDS_P1;SDS_P2;PMS_P1;PMS_P2;Temp;Humidity;BMP_temperature;BMP_pressure;BME280_temperature;BME280_humidity;BME280_pressure;Samples;Min_cycle;Max_cycle;Signal;HPM_P1;HPM_P2
2022/01/26 00:05:52;;;;;;;93.00;65.75;;;22.40;99.30;;;;;;4210245;28;20054;-66
2022/01/26 00:07:57;;;;;;;89.50;62.50;;;22.40;99.30;;;;;;4211774;28;20422;-66
2022/01/26 00:10:21;;;;;;;95.68;63.40;;;22.40;99.30;;;;;;4209895;28;20077;-67
2022/01/26 00:12:45;;;;;;;92.00;62.83;;;22.40;99.40;;;;;;4197060;28;20048;-66
2022/01/26 00:15:10;;;;;;;96.13;63.35;;;22.40;99.60;;;;;;4210293;28;20512;-66
2022/01/26 00:17:35;;;;;;;98.22;62.78;;;22.40;99.60;;;;;;4197350;28;20052;-66
2022/01/26 00:20:11;;;;;;;91.82;62.55;;;22.40;99.60;;;;;;4202012;28;20045;-66
2022/01/26 00:22:34;;;;;;;99.68;66.40;;;22.50;99.50;;;;;;4210902;28;20490;-66
2022/01/26 00:24:55;;;;;;;115.20;73.53;;;22.50;99.60;;;;;;4213415;28;20036;-66
2022/01/26 00:29:34;;;;;;;92.63;60.47;;;22.50;99.90;;;;;;4211453;28;20089;-65
2022/01/26 00:38:34;;;;;;;111.93;58.47;;;22.60;99.90;;;;;;4213179;28;20047;-65
2022/01/26 00:39:29;;;;;;;100.63;67.32;;;22.70;99.90;;;;;;4182918;28;20041;-66
2022/01/26 00:41:57;;;;;;;103.60;67.78;;;22.70;99.90;;;;;;4211538;28;20741;-65
2022/01/26 00:44:02;;;;;;;99.78;67.57;;;22.70;99.80;;;;;;4210931;28;20331;-65
2022/01/26 00:46:07;;;;;;;99.13;65.93;;;22.80;99.90;;;;;;4211149;28;20052;-65
2022/01/26 00:48:18;;;;;;;88.13;62.15;;;22.80;99.70;;;;;;4212551;28;20048;-64
2022/01/26 00:50:23;;;;;;;87.82;62.10;;;22.90;99.80;;;;;;4211499;28;20386;-64
2022/01/26 00:52:38;;;;;;;84.22;59.72;;;22.90;99.70;;;;;;4193857;28;20082;-64
2022/01/26 00:54:42;;;;;;;89.00;61.15;;;22.90;99.60;;;;;;4210795;28;20032;-65
2022/01/26 00:57:06;;;;;;;87.45;56.53;;;22.90;99.50;;;;;;4197511;28;20510;-64
2022/01/26 00:59:31;;;;;;;108.60;59.55;;;23.00;99.40;;;;;;4196914;28;20080;-63
2022/01/26 01:01:35;;;;;;;147.73;62.88;;;23.00;99.50;;;;;;4208256;28;20038;-64
2022/01/26 01:04:00;;;;;;;128.52;63.90;;;23.00;99.40;;;;;;4195128;28;20051;-64
2022/01/26 01:06:29;;;;;;;104.88;61.28;;;23.10;99.30;;;;;;4196675;28;20499;-63
2022/01/26 01:08:56;;;;;;;119.30;60.28;;;23.20;99.20;;;;;;4194731;28;20562;-66
2022/01/26 01:11:00;;;;;;;96.15;56.13;;;23.20;99.20;;;;;;4210067;28;20054;-66
2022/01/26 01:13:07;;;;;;;94.15;55.60;;;23.30;99.10;;;;;;4209089;28;20066;-65
2022/01/26 01:15:31;;;;;;;111.40;54.33;;;23.30;99.10;;;;;;4196904;28;20135;-66
2022/01/26 01:18:08;;;;;;;84.25;52.17;;;23.40;98.90;;;;;;4210775;28;20055;-66
2022/01/26 01:21:13;;;;;;;88.80;49.92;;;23.40;98.80;;;;;;4195604;28;20470;-64
2022/01/26 01:31:02;;;;;;;56.40;40.92;;;23.50;97.20;;;;;;4194742;28;20049;-66
2022/01/26 01:33:32;;;;;;;65.35;40.40;;;23.60;96.30;;;;;;4210806;28;20147;-63
2022/01/26 01:35:47;;;;;;;61.28;41.97;;;23.60;96.50;;;;;;4194621;28;20131;-64
2022/01/26 01:37:52;;;;;;;64.18;40.88;;;23.70;96.10;;;;;;4209898;28;20051;-65
2022/01/26 01:39:56;;;;;;;69.57;42.28;;;23.70;96.10;;;;;;4208588;28;20047;-64
2022/01/26 01:42:01;;;;;;;83.97;42.53;;;23.80;96.10;;;;;;4210457;28;20086;-64
2022/01/26 01:44:06;;;;;;;68.22;38.10;;;23.80;95.70;;;;;;4210191;28;20033;-63
2022/01/26 01:46:13;;;;;;;65.22;39.38;;;23.80;93.80;;;;;;4209635;28;20607;-64
2022/01/26 01:48:22;;;;;;;68.47;43.40;;;23.80;94.60;;;;;;4209703;28;20040;-64
2022/01/26 01:50:27;;;;;;;66.80;40.22;;;23.90;94.80;;;;;;4209681;28;20043;-65
2022/01/26 01:52:31;;;;;;;50.83;34.90;;;23.90;95.00;;;;;;4209601;28;20085;-63
2022/01/26 01:54:38;;;;;;;48.05;32.50;;;23.90;94.30;;;;;;4209649;28;20048;-65
2022/01/26 01:56:55;;;;;;;49.65;33.50;;;24.00;93.90;;;;;;4209919;28;20052;-66
2022/01/26 01:59:00;;;;;;;44.70;31.27;;;24.00;93.60;;;;;;4211780;28;20117;-66
2022/01/26 02:01:05;;;;;;;59.80;34.10;;;24.00;93.10;;;;;;4209080;28;20617;-64
2022/01/26 02:03:11;;;;;;;57.33;35.65;;;24.10;92.90;;;;;;4209899;28;20124;-65
2022/01/26 02:05:15;;;;;;;58.33;34.10;;;24.10;92.90;;;;;;4209368;28;20039;-64
2022/01/26 02:07:20;;;;;;;52.78;33.35;;;24.20;92.80;;;;;;4209825;28;20421;-65
2022/01/26 02:09:24;;;;;;;59.65;34.78;;;24.20;92.60;;;;;;4209937;28;20513;-66
2022/01/26 02:11:29;;;;;;;65.75;36.38;;;24.20;92.60;;;;;;4208671;28;20044;-64
2022/01/26 02:13:42;;;;;;;65.03;38.45;;;24.30;93.00;;;;;;4208925;28;20101;-64
2022/01/26 02:20:49;;;;;;;52.55;34.88;;;24.40;93.70;;;;;;4212645;28;20717;-65
2022/01/26 02:52:44;;;;;;;29.50;20.27;;;25.10;93.40;;;;;;4214375;28;20098;-62
2022/01/26 02:57:11;;;;;;;31.33;22.05;;;25.20;93.20;;;;;;4209488;28;20036;-65
2022/01/26 02:59:48;;;;;;;30.08;22.55;;;25.20;93.30;;;;;;4210363;28;20516;-65
2022/01/26 03:06:12;;;;;;;31.23;23.17;;;25.30;93.30;;;;;;4210127;28;20127;-65
2022/01/26 03:08:28;;;;;;;32.97;22.23;;;25.40;93.50;;;;;;4208743;28;20048;-65
2022/01/26 03:10:44;;;;;;;34.72;23.08;;;25.40;93.50;;;;;;4210063;28;20163;-67
2022/01/26 03:13:04;;;;;;;40.13;22.30;;;25.50;93.70;;;;;;4212927;28;20113;-66
2022/01/26 03:15:19;;;;;;;55.17;33.83;;;25.50;93.40;;;;;;4212794;28;20067;-65
2022/01/26 03:19:47;;;;;;;40.83;24.98;;;25.70;93.30;;;;;;4213169;28;20043;-65
2022/01/26 03:28:46;;;;;;;59.15;19.65;;;25.90;92.40;;;;;;4212605;28;20048;-66
2022/01/26 03:35:42;;;;;;;60.75;19.50;;;26.00;92.20;;;;;;4211262;28;20502;-64
2022/01/26 03:37:53;;;;;;;33.92;17.38;;;26.00;92.10;;;;;;4212072;28;20062;-64
2022/01/26 03:39:57;;;;;;;32.25;17.25;;;26.10;92.10;;;;;;4211388;28;20510;-65
2022/01/26 03:42:05;;;;;;;28.13;17.58;;;26.20;92.10;;;;;;4210791;28;20046;-65
2022/01/26 03:44:09;;;;;;;24.45;16.50;;;26.20;92.00;;;;;;4212083;28;20522;-66
2022/01/26 03:46:14;;;;;;;26.63;17.58;;;26.20;91.40;;;;;;4210840;28;20039;-66
2022/01/26 03:48:19;;;;;;;24.23;17.23;;;26.30;91.30;;;;;;4211406;28;20052;-66
2022/01/26 03:50:23;;;;;;;51.20;20.65;;;26.40;91.30;;;;;;4211622;28;20048;-65
2022/01/26 03:52:27;;;;;;;39.88;21.38;;;26.40;91.00;;;;;;4212845;28;20044;-65
2022/01/26 03:54:32;;;;;;;33.10;23.40;;;26.40;91.00;;;;;;4213103;28;20048;-65
2022/01/26 03:56:36;;;;;;;45.95;29.70;;;26.50;91.00;;;;;;4212251;28;20044;-64
2022/01/26 03:58:40;;;;;;;69.80;28.13;;;26.50;90.90;;;;;;4211593;28;20479;-65
2022/01/26 04:00:44;;;;;;;45.20;22.77;;;26.50;90.70;;;;;;4212909;28;20072;-63
2022/01/26 04:02:49;;;;;;;31.60;20.48;;;26.50;90.30;;;;;;4211571;28;20131;-66
2022/01/26 04:04:59;;;;;;;33.72;19.83;;;26.60;90.20;;;;;;4212680;28;20682;-65
2022/01/26 04:07:05;;;;;;;30.52;19.27;;;26.60;89.50;;;;;;4212319;28;20033;-65
2022/01/26 04:09:11;;;;;;;29.58;20.08;;;26.60;89.10;;;;;;4212057;28;20075;-65
2022/01/26 04:13:40;;;;;;;24.83;18.95;;;26.80;87.50;;;;;;4212328;28;20135;-65
2022/01/26 04:15:45;;;;;;;25.95;18.95;;;26.80;85.60;;;;;;4211744;28;20056;-65
2022/01/26 04:17:50;;;;;;;30.40;20.05;;;26.90;84.90;;;;;;4213685;28;20085;-65
2022/01/26 04:19:57;;;;;;;27.80;21.02;;;26.90;85.40;;;;;;4210549;28;20407;-65
2022/01/26 04:24:18;;;;;;;32.22;20.92;;;27.00;85.80;;;;;;4211591;28;20076;-65
2022/01/26 04:26:30;;;;;;;33.88;20.55;;;27.00;83.30;;;;;;4214673;28;20075;-64
2022/01/26 04:28:42;;;;;;;23.92;18.63;;;27.00;82.10;;;;;;4211968;28;20047;-65
2022/01/26 04:30:48;;;;;;;22.60;16.83;;;27.10;82.00;;;;;;4213268;28;20119;-64
2022/01/26 04:32:59;;;;;;;26.17;16.92;;;27.20;81.50;;;;;;4209761;28;20051;-63
2022/01/26 04:35:04;;;;;;;22.63;16.75;;;27.30;79.80;;;;;;4212908;28;20043;-64
2022/01/26 04:39:33;;;;;;;25.50;17.25;;;27.30;81.30;;;;;;4195591;28;20119;-65
2022/01/26 04:41:50;;;;;;;28.02;16.80;;;27.30;81.40;;;;;;4194786;28;20625;-64
2022/01/26 04:44:00;;;;;;;27.35;17.98;;;27.40;80.50;;;;;;4198063;28;20071;-65
2022/01/26 04:46:05;;;;;;;23.02;17.25;;;27.40;81.80;;;;;;4197945;28;20058;-68
2022/01/26 04:48:10;;;;;;;22.95;16.65;;;27.50;82.50;;;;;;4188134;28;20052;-65
2022/01/26 04:50:15;;;;;;;26.48;16.00;;;27.50;82.20;;;;;;4192585;28;20529;-66
2022/01/26 04:52:19;;;;;;;22.40;15.23;;;27.60;82.10;;;;;;4194010;28;20575;-67
2022/01/26 04:54:25;;;;;;;28.17;15.43;;;27.60;81.20;;;;;;4194295;28;20044;-66
2022/01/26 04:56:29;;;;;;;24.55;15.55;;;27.60;81.60;;;;;;4192596;28;20376;-66
2022/01/26 04:58:33;;;;;;;23.08;14.95;;;27.60;81.70;;;;;;4196526;28;20059;-63
2022/01/26 05:00:38;;;;;;;20.80;15.60;;;27.60;82.10;;;;;;4194781;28;20049;-66
2022/01/26 05:02:44;;;;;;;21.98;15.60;;;27.70;83.10;;;;;;4198405;28;20365;-65
2022/01/26 05:04:50;;;;;;;22.48;16.20;;;27.80;83.50;;;;;;4195665;28;20056;-62
2022/01/26 05:06:55;;;;;;;25.17;15.60;;;27.90;83.40;;;;;;4195473;28;20122;-64
2022/01/26 05:09:01;;;;;;;22.67;15.27;;;27.90;82.30;;;;;;4196363;28;20518;-63
2022/01/26 05:11:08;;;;;;;18.10;14.10;;;28.00;81.60;;;;;;4197228;28;20036;-66
2022/01/26 05:13:32;;;;;;;22.60;14.85;;;28.00;80.20;;;;;;4195906;28;20034;-63
2022/01/26 05:15:36;;;;;;;22.05;15.00;;;28.10;80.70;;;;;;4199887;28;20058;-66
2022/01/26 05:17:42;;;;;;;21.15;15.05;;;28.10;81.10;;;;;;4198448;28;20044;-66
2022/01/26 05:19:53;;;;;;;23.23;14.00;;;28.10;80.60;;;;;;4196117;28;20053;-68
2022/01/26 05:21:58;;;;;;;19.90;13.93;;;28.20;76.70;;;;;;4195991;28;20120;-66
2022/01/26 05:24:03;;;;;;;18.52;14.10;;;28.30;77.40;;;;;;4194806;28;20036;-63
2022/01/26 05:26:08;;;;;;;21.80;14.68;;;28.30;76.60;;;;;;4198892;28;20044;-66
2022/01/26 05:28:13;;;;;;;21.15;13.85;;;28.30;76.00;;;;;;4194443;28;20558;-65
2022/01/26 05:30:20;;;;;;;19.88;13.20;;;28.30;76.60;;;;;;4187809;28;20050;-66
2022/01/26 05:32:26;;;;;;;17.00;12.82;;;28.30;77.60;;;;;;4194112;28;20447;-70
2022/01/26 05:34:34;;;;;;;18.55;12.63;;;28.40;77.50;;;;;;4194777;28;20145;-65
2022/01/26 05:36:38;;;;;;;19.42;12.70;;;28.50;77.10;;;;;;4193309;28;20109;-67
2022/01/26 05:38:43;;;;;;;21.50;13.35;;;28.60;76.60;;;;;;4208079;28;20063;-66
2022/01/26 05:40:47;;;;;;;24.75;13.68;;;28.60;76.30;;;;;;4210403;28;20127;-66
2022/01/26 05:42:51;;;;;;;24.05;13.63;;;28.70;74.60;;;;;;4213172;28;20040;-66
2022/01/26 05:45:02;;;;;;;19.08;12.93;;;28.70;76.20;;;;;;4210159;28;20051;-65
2022/01/26 05:47:13;;;;;;;19.10;12.23;;;28.70;77.10;;;;;;4213651;28;20036;-66
2022/01/26 05:49:18;;;;;;;20.00;12.45;;;28.70;76.00;;;;;;4210886;28;20086;-64
2022/01/26 05:51:24;;;;;;;20.75;12.82;;;28.80;75.40;;;;;;4209483;28;20044;-64
2022/01/26 05:53:28;;;;;;;17.17;12.30;;;28.70;75.00;;;;;;4210406;28;20171;-64
2022/01/26 05:55:33;;;;;;;28.33;13.70;;;28.80;74.20;;;;;;4209652;28;20032;-66
2022/01/26 05:57:37;;;;;;;30.95;13.82;;;28.90;73.80;;;;;;4211896;28;20044;-65
2022/01/26 05:59:43;;;;;;;25.55;13.38;;;28.80;74.80;;;;;;4211524;28;20127;-65
2022/01/26 06:01:48;;;;;;;33.38;13.85;;;28.90;75.60;;;;;;4211703;28;20036;-63
2022/01/26 06:03:53;;;;;;;22.08;12.85;;;28.90;75.70;;;;;;4211696;28;20540;-64
2022/01/26 06:05:58;;;;;;;30.00;14.05;;;29.00;75.70;;;;;;4209633;28;20501;-64
2022/01/26 06:08:03;;;;;;;30.33;13.05;;;29.00;76.20;;;;;;4210502;28;20109;-65
2022/01/26 06:10:08;;;;;;;19.90;11.30;;;29.10;75.30;;;;;;4210267;28;20509;-66
2022/01/26 06:12:12;;;;;;;15.65;10.95;;;29.20;71.70;;;;;;4209537;28;20093;-67
2022/01/26 06:14:17;;;;;;;12.68;10.10;;;29.10;71.40;;;;;;4210535;28;20073;-64
2022/01/26 06:16:22;;;;;;;15.50;10.32;;;29.10;70.00;;;;;;4192225;28;20114;-65
2022/01/26 06:18:27;;;;;;;35.55;12.20;;;29.10;70.30;;;;;;4210579;28;20113;-65
2022/01/26 06:20:31;;;;;;;34.22;11.43;;;29.10;70.90;;;;;;4210385;28;20044;-63
2022/01/26 06:22:35;;;;;;;20.30;10.43;;;29.20;71.50;;;;;;4211409;28;20044;-65
2022/01/26 06:24:40;;;;;;;26.08;11.90;;;29.20;72.20;;;;;;4193952;28;20246;-64
2022/01/26 06:26:44;;;;;;;28.65;12.32;;;29.30;71.40;;;;;;4208727;28;20088;-64
2022/01/26 06:28:50;;;;;;;34.72;12.07;;;29.20;70.90;;;;;;4209913;28;20035;-64
2022/01/26 06:30:59;;;;;;;22.90;10.25;;;29.30;70.50;;;;;;4210476;28;20032;-64
2022/01/26 06:33:05;;;;;;;22.40;9.98;;;29.30;69.00;;;;;;4211552;28;20567;-64
2022/01/26 06:35:11;;;;;;;17.20;9.90;;;29.30;69.30;;;;;;4209023;28;20052;-65
2022/01/26 06:37:16;;;;;;;22.80;10.80;;;29.40;68.80;;;;;;4208908;28;20059;-66
2022/01/26 06:39:20;;;;;;;13.00;9.68;;;29.40;68.80;;;;;;4210621;28;20082;-65
2022/01/26 06:41:31;;;;;;;14.00;9.07;;;29.50;69.00;;;;;;4209325;28;20122;-64
2022/01/26 06:43:45;;;;;;;12.10;8.18;;;29.50;69.10;;;;;;4192862;28;20045;-62
2022/01/26 06:46:03;;;;;;;14.30;8.35;;;29.60;68.50;;;;;;4209936;28;20551;-64
2022/01/26 06:50:18;;;;;;;11.75;8.20;;;29.80;67.90;;;;;;4212510;28;20143;-62
2022/01/26 06:52:22;;;;;;;12.43;8.27;;;29.80;67.70;;;;;;4213966;28;20063;-63
2022/01/26 06:54:27;;;;;;;9.88;8.10;;;29.80;67.10;;;;;;4213048;28;20050;-64
2022/01/26 06:56:31;;;;;;;15.90;8.18;;;29.80;67.20;;;;;;4214512;28;20071;-65
2022/01/26 06:58:35;;;;;;;10.57;7.68;;;29.80;66.60;;;;;;4214999;28;20402;-62
2022/01/26 07:00:39;;;;;;;11.93;7.63;;;29.80;65.30;;;;;;4214277;28;20040;-63
2022/01/26 07:02:44;;;;;;;11.32;7.30;;;29.80;64.20;;;;;;4212157;28;20121;-63
2022/01/26 07:04:49;;;;;;;13.25;7.97;;;29.80;64.60;;;;;;4215243;28;20122;-64
2022/01/26 07:06:53;;;;;;;11.80;8.18;;;29.80;64.40;;;;;;4212647;28;20117;-63
2022/01/26 07:08:58;;;;;;;18.88;8.38;;;29.80;63.70;;;;;;4213613;28;20055;-63
2022/01/26 07:11:03;;;;;;;39.70;9.13;;;29.80;64.80;;;;;;4213924;28;20067;-64
2022/01/26 07:13:08;;;;;;;35.05;9.73;;;29.90;64.50;;;;;;4215455;28;20047;-63
2022/01/26 07:19:54;;;;;;;9.82;7.40;;;29.80;64.30;;;;;;4214225;28;20047;-63
2022/01/26 07:21:59;;;;;;;14.75;8.63;;;29.80;63.70;;;;;;4217844;28;20122;-62
2022/01/26 07:24:04;;;;;;;12.65;7.68;;;29.80;64.70;;;;;;4212255;28;20942;-62
2022/01/26 07:26:08;;;;;;;19.38;7.60;;;29.90;65.00;;;;;;4212533;28;20048;-63
2022/01/26 07:28:13;;;;;;;19.95;8.18;;;29.90;64.70;;;;;;4211543;28;20048;-64
2022/01/26 07:30:18;;;;;;;43.53;8.57;;;29.90;64.80;;;;;;4212129;28;20046;-64
2022/01/26 07:32:24;;;;;;;38.95;9.35;;;29.90;63.60;;;;;;4212423;28;20052;-64
2022/01/26 07:34:29;;;;;;;34.55;8.50;;;30.00;64.50;;;;;;4212767;28;20052;-64
2022/01/26 07:36:33;;;;;;;16.20;8.40;;;30.00;64.80;;;;;;4214916;28;20126;-64
2022/01/26 07:38:37;;;;;;;22.58;8.27;;;30.10;64.00;;;;;;4213067;28;20144;-65
2022/01/26 07:40:42;;;;;;;10.90;7.80;;;30.20;64.60;;;;;;4212941;28;20047;-65
2022/01/26 07:42:47;;;;;;;11.52;8.45;;;30.00;64.80;;;;;;4212656;28;20405;-64
2022/01/26 07:44:52;;;;;;;16.52;8.27;;;29.90;65.00;;;;;;4217274;28;20078;-62
2022/01/26 07:46:56;;;;;;;13.80;8.60;;;29.90;64.80;;;;;;4212500;28;20126;-63
2022/01/26 07:49:00;;;;;;;13.73;8.63;;;29.80;66.00;;;;;;4198459;28;20036;-62
2022/01/26 07:51:05;;;;;;;21.58;8.70;;;29.80;65.40;;;;;;4211619;28;20040;-63
2022/01/26 07:53:14;;;;;;;15.60;8.45;;;29.70;64.90;;;;;;4214260;28;20044;-62
2022/01/26 07:55:22;;;;;;;16.73;7.88;;;29.70;65.30;;;;;;4211273;28;20451;-62
2022/01/26 07:57:26;;;;;;;13.93;7.82;;;29.80;65.50;;;;;;4213310;28;20056;-63
2022/01/26 07:59:31;;;;;;;22.90;8.05;;;29.80;66.10;;;;;;4210893;28;20063;-64
2022/01/26 08:01:35;;;;;;;15.68;8.20;;;29.90;66.60;;;;;;4211046;28;20052;-63
2022/01/26 08:04:00;;;;;;;14.00;7.32;;;29.90;65.40;;;;;;4198386;28;20159;-63
2022/01/26 08:06:25;;;;;;;18.33;7.93;;;29.90;65.30;;;;;;4198237;28;20056;-63
2022/01/26 08:08:49;;;;;;;11.23;7.47;;;30.00;65.70;;;;;;4197945;28;20071;-63
2022/01/26 08:11:13;;;;;;;14.93;7.30;;;30.00;66.00;;;;;;4183540;28;20767;-63
2022/01/26 08:13:37;;;;;;;11.38;8.00;;;29.90;64.70;;;;;;4196725;28;20467;-63
2022/01/26 08:16:01;;;;;;;15.63;7.60;;;29.80;65.10;;;;;;4200983;28;20086;-63
2022/01/26 08:18:25;;;;;;;16.42;7.68;;;29.80;65.20;;;;;;4198653;28;20051;-63
2022/01/26 08:20:50;;;;;;;11.80;7.60;;;29.80;65.40;;;;;;4210423;28;20044;-63
2022/01/26 08:23:14;;;;;;;8.43;7.15;;;29.80;65.50;;;;;;4197182;28;20048;-64
2022/01/26 08:25:38;;;;;;;9.90;7.60;;;29.90;66.00;;;;;;4199629;28;20078;-63
2022/01/26 08:27:47;;;;;;;11.82;8.05;;;29.90;65.90;;;;;;4211878;28;20502;-63
2022/01/26 08:29:57;;;;;;;10.52;7.35;;;30.00;65.80;;;;;;4213567;28;20046;-63
2022/01/26 08:32:01;;;;;;;10.10;7.70;;;30.00;65.80;;;;;;4211440;28;20383;-63
2022/01/26 08:34:25;;;;;;;12.45;7.50;;;30.00;65.60;;;;;;4198154;28;20041;-63
2022/01/26 08:36:49;;;;;;;10.45;7.72;;;30.00;66.20;;;;;;4193774;28;20404;-63
2022/01/26 08:38:54;;;;;;;10.50;7.43;;;30.00;65.70;;;;;;4210403;28;20044;-62
2022/01/26 08:40:58;;;;;;;11.82;7.82;;;30.00;65.30;;;;;;4209291;28;20040;-63
2022/01/26 08:43:02;;;;;;;11.43;7.25;;;30.10;65.30;;;;;;4209762;28;20036;-63
2022/01/26 08:45:07;;;;;;;9.75;7.53;;;30.10;65.80;;;;;;4211244;28;20036;-63
2022/01/26 08:47:32;;;;;;;11.52;7.72;;;30.00;65.30;;;;;;4196856;28;20047;-63
2022/01/26 08:49:55;;;;;;;14.98;7.82;;;30.10;65.60;;;;;;4196921;28;20048;-63
2022/01/26 08:52:20;;;;;;;11.18;8.18;;;30.10;65.50;;;;;;4208566;28;20092;-63
2022/01/26 08:54:44;;;;;;;13.90;9.18;;;30.10;65.40;;;;;;4195379;28;20052;-63
2022/01/26 08:57:08;;;;;;;18.40;12.32;;;30.10;65.40;;;;;;4208860;28;20052;-63
2022/01/26 08:59:32;;;;;;;18.75;12.50;;;30.10;65.50;;;;;;4195491;28;20682;-64
2022/01/26 09:01:56;;;;;;;20.02;14.05;;;30.00;65.90;;;;;;4197096;28;20051;-64
2022/01/26 09:04:20;;;;;;;17.63;12.30;;;30.10;66.10;;;;;;4194533;28;20084;-64
2022/01/26 09:06:57;;;;;;;16.15;10.65;;;30.10;65.50;;;;;;4195341;28;20086;-63
2022/01/26 09:09:22;;;;;;;13.65;10.07;;;30.00;65.20;;;;;;4208747;28;20063;-63
2022/01/26 09:11:47;;;;;;;13.20;8.77;;;30.00;65.20;;;;;;4195235;28;20060;-63
2022/01/26 09:13:57;;;;;;;12.05;8.52;;;30.00;64.50;;;;;;4209811;28;20044;-63
2022/01/26 09:16:09;;;;;;;14.57;8.32;;;30.00;63.20;;;;;;4210612;28;20110;-64
2022/01/26 09:18:19;;;;;;;12.77;8.50;;;30.00;62.60;;;;;;4209359;28;20142;-63
2022/01/26 09:20:24;;;;;;;12.00;8.55;;;30.00;63.70;;;;;;4210547;28;20147;-63
2022/01/26 09:22:29;;;;;;;10.60;8.02;;;29.90;64.40;;;;;;4209103;28;20501;-64
2022/01/26 09:24:35;;;;;;;12.55;8.30;;;29.90;64.80;;;;;;4209928;28;20418;-64
2022/01/26 09:26:40;;;;;;;11.73;8.50;;;29.90;64.90;;;;;;4210428;28;20101;-64
2022/01/26 09:28:45;;;;;;;14.50;8.82;;;29.90;65.20;;;;;;4213581;28;20808;-64
2022/01/26 09:30:52;;;;;;;12.77;8.57;;;29.80;65.20;;;;;;4209445;28;20908;-64
2022/01/26 09:32:57;;;;;;;10.70;8.32;;;29.80;65.20;;;;;;4210752;28;20052;-64
2022/01/26 09:35:01;;;;;;;13.43;8.90;;;29.80;65.00;;;;;;4211399;28;20457;-64
2022/01/26 09:37:13;;;;;;;12.95;9.05;;;29.70;65.00;;;;;;4213708;28;20047;-64
2022/01/26 09:39:18;;;;;;;10.82;8.02;;;29.70;64.80;;;;;;4208322;28;20044;-64
2022/01/26 09:41:23;;;;;;;13.40;8.23;;;29.70;64.70;;;;;;4214318;28;20436;-65
2022/01/26 09:43:28;;;;;;;10.77;8.23;;;29.70;64.50;;;;;;4211279;28;20558;-64
2022/01/26 09:45:36;;;;;;;10.25;8.38;;;29.70;64.20;;;;;;4212076;28;20043;-64
2022/01/26 09:47:43;;;;;;;13.40;8.10;;;29.60;64.50;;;;;;4211114;28;20043;-64
2022/01/26 09:50:07;;;;;;;12.95;8.95;;;29.70;65.50;;;;;;4211678;28;20040;-64
2022/01/26 09:52:31;;;;;;;10.90;8.88;;;29.60;65.60;;;;;;4195226;28;20040;-63
2022/01/26 09:54:36;;;;;;;16.50;8.95;;;29.60;65.50;;;;;;4213167;28;20117;-65
2022/01/26 09:57:03;;;;;;;11.60;8.60;;;29.60;64.50;;;;;;4210019;28;20114;-64
2022/01/26 09:59:09;;;;;;;12.20;8.32;;;29.60;65.30;;;;;;4211653;28;20545;-64
2022/01/26 10:01:13;;;;;;;12.10;9.70;;;29.50;65.40;;;;;;4210312;28;20047;-64
2022/01/26 10:03:23;;;;;;;16.17;11.05;;;29.50;65.80;;;;;;4193621;28;20079;-64
2022/01/26 10:05:41;;;;;;;17.33;11.25;;;29.50;66.00;;;;;;4196816;28;20047;-63
2022/01/26 10:08:28;;;;;;;14.23;10.27;;;29.50;66.10;;;;;;4210069;28;20067;-66
2022/01/26 10:17:31;;;;;;;13.32;9.95;;;29.40;67.20;;;;;;4210665;28;20076;-64
2022/01/26 10:19:36;;;;;;;15.07;9.40;;;29.40;67.90;;;;;;4212660;28;20048;-64
2022/01/26 10:21:48;;;;;;;15.40;9.93;;;29.40;68.30;;;;;;4213555;28;20127;-64
2022/01/26 10:24:07;;;;;;;15.65;10.10;;;29.30;69.10;;;;;;4210524;28;20141;-63
2022/01/26 10:26:14;;;;;;;15.60;10.40;;;29.30;68.60;;;;;;4211148;28;20577;-64
2022/01/26 10:28:20;;;;;;;18.25;9.90;;;29.30;69.00;;;;;;4211100;28;20468;-64
2022/01/26 10:30:25;;;;;;;18.55;10.02;;;29.20;69.00;;;;;;4209154;28;20051;-63
2022/01/26 10:32:34;;;;;;;18.77;9.80;;;29.20;69.10;;;;;;4210380;28;20043;-64
2022/01/26 10:34:39;;;;;;;14.00;10.07;;;29.20;69.50;;;;;;4208970;28;20283;-64
2022/01/26 10:36:50;;;;;;;12.98;9.77;;;29.20;69.80;;;;;;4212220;28;20036;-64
2022/01/26 10:39:01;;;;;;;20.40;14.32;;;29.20;70.00;;;;;;4208942;28;20089;-63
2022/01/26 10:41:19;;;;;;;16.17;11.88;;;29.10;72.00;;;;;;4209732;28;20065;-63
2022/01/26 10:43:29;;;;;;;21.55;13.43;;;29.10;72.30;;;;;;4208928;28;20036;-63
2022/01/26 10:48:00;;;;;;;624.17;63.50;;;29.00;73.10;;;;;;4208879;28;20047;-65
2022/01/26 10:52:41;;;;;;;647.33;63.88;;;28.90;73.60;;;;;;4209667;28;20445;-64
2022/01/26 10:54:48;;;;;;;328.02;38.53;;;28.90;73.90;;;;;;4208372;28;20052;-64
2022/01/26 10:56:57;;;;;;;127.57;25.52;;;28.80;74.30;;;;;;4209369;28;20516;-64
2022/01/26 10:59:02;;;;;;;98.68;22.52;;;28.70;74.80;;;;;;4211528;28;20121;-64
2022/01/26 11:01:08;;;;;;;84.97;23.13;;;28.70;75.10;;;;;;4191213;28;20098;-65
2022/01/26 11:03:13;;;;;;;60.35;22.52;;;28.70;75.40;;;;;;4210826;28;20531;-64
2022/01/26 11:05:19;;;;;;;71.13;26.42;;;28.60;76.00;;;;;;4191585;28;20056;-64
2022/01/26 11:07:36;;;;;;;67.13;32.78;;;28.60;76.20;;;;;;4210449;28;20433;-64
2022/01/26 11:09:46;;;;;;;61.90;31.77;;;28.60;76.40;;;;;;4210693;28;20055;-64
2022/01/26 11:12:07;;;;;;;50.95;27.10;;;28.50;76.70;;;;;;4209192;28;20403;-64
2022/01/26 11:14:21;;;;;;;46.25;28.13;;;28.40;77.20;;;;;;4209398;28;20158;-63
2022/01/26 11:16:50;;;;;;;50.78;29.35;;;28.40;77.60;;;;;;4210909;28;20028;-64
2022/01/26 11:18:58;;;;;;;42.67;26.05;;;28.40;77.60;;;;;;4193887;28;20152;-63
2022/01/26 11:21:03;;;;;;;44.88;25.65;;;28.30;77.80;;;;;;4207840;28;20071;-63
2022/01/26 11:23:07;;;;;;;43.67;24.42;;;28.30;78.10;;;;;;4210115;28;20109;-65
2022/01/26 11:25:13;;;;;;;46.65;25.08;;;28.20;78.30;;;;;;4213336;28;20044;-65
2022/01/26 11:27:18;;;;;;;41.92;26.48;;;28.20;78.70;;;;;;4209667;28;20047;-65
2022/01/26 11:29:26;;;;;;;47.42;27.23;;;28.10;79.10;;;;;;4193822;28;20047;-65
2022/01/26 11:31:33;;;;;;;47.90;28.17;;;28.10;79.60;;;;;;4214574;28;20048;-65
2022/01/26 11:33:50;;;;;;;47.28;29.27;;;28.00;79.80;;;;;;4222876;28;20036;-65
2022/01/26 11:35:56;;;;;;;52.13;29.83;;;28.00;80.20;;;;;;4208906;28;20036;-65
2022/01/26 11:45:35;;;;;;;57.72;30.58;;;27.90;80.90;;;;;;4214482;28;20032;-65
2022/01/26 11:47:43;;;;;;;55.03;30.87;;;27.90;81.30;;;;;;4211800;28;20087;-65
2022/01/26 11:49:47;;;;;;;47.08;31.65;;;27.80;81.60;;;;;;4214963;28;20040;-65
2022/01/26 11:51:56;;;;;;;64.20;33.30;;;27.80;81.70;;;;;;4197384;28;20047;-65
2022/01/26 11:54:12;;;;;;;55.17;32.00;;;27.90;81.70;;;;;;4212118;28;20038;-65
2022/01/26 11:56:20;;;;;;;54.45;31.02;;;27.80;81.70;;;;;;4212498;28;20051;-65
2022/01/26 11:58:34;;;;;;;46.40;28.85;;;27.70;81.70;;;;;;4207674;28;20055;-65
2022/01/26 12:03:31;;;;;;;60.30;28.35;;;27.70;82.20;;;;;;4210796;28;20044;-65
2022/01/26 12:05:44;;;;;;;52.55;28.23;;;27.70;82.40;;;;;;4212365;28;20681;-65
2022/01/26 12:07:57;;;;;;;60.03;29.38;;;27.70;82.40;;;;;;4212688;28;20063;-65
2022/01/26 12:10:04;;;;;;;48.58;26.20;;;27.60;82.60;;;;;;4211247;28;20561;-64
2022/01/26 12:12:18;;;;;;;44.35;26.60;;;27.60;82.70;;;;;;4212084;28;20042;-65
2022/01/26 12:14:26;;;;;;;44.97;26.88;;;27.50;82.90;;;;;;4212721;28;20059;-65
2022/01/26 12:16:42;;;;;;;49.83;27.33;;;27.40;83.00;;;;;;4213662;28;20059;-65
2022/01/26 12:42:41;;;;;;;55.60;28.02;;;27.30;84.30;;;;;;4204856;28;20050;-64
2022/01/26 12:44:45;;;;;;;53.28;27.23;;;27.30;84.40;;;;;;4205709;28;20110;-64
2022/01/26 12:46:49;;;;;;;52.60;26.05;;;27.30;84.60;;;;;;4203745;28;20048;-64
2022/01/26 12:48:57;;;;;;;49.38;26.00;;;27.20;84.80;;;;;;4204965;28;20415;-64
2022/01/26 12:51:03;;;;;;;63.75;27.80;;;27.20;84.90;;;;;;4204915;28;20066;-64
2022/01/26 12:53:07;;;;;;;55.55;25.75;;;27.20;85.20;;;;;;4207263;28;21537;-64
2022/01/26 12:55:32;;;;;;;61.25;27.35;;;27.10;85.20;;;;;;4206064;28;20044;-64
2022/01/26 12:57:44;;;;;;;55.85;28.38;;;27.20;85.50;;;;;;4206011;28;20044;-64
2022/01/26 13:00:02;;;;;;;60.95;28.25;;;27.10;85.40;;;;;;4204825;28;20048;-64
2022/01/26 13:02:07;;;;;;;56.88;29.25;;;27.10;85.60;;;;;;4190194;28;20127;-64
2022/01/26 13:04:13;;;;;;;55.35;29.00;;;27.10;85.30;;;;;;4207067;28;20130;-64
2022/01/26 13:06:25;;;;;;;66.50;32.97;;;27.00;85.60;;;;;;4207910;28;20162;-63
2022/01/26 13:08:38;;;;;;;60.78;33.92;;;27.00;85.40;;;;;;4204526;28;20051;-64
2022/01/26 13:10:43;;;;;;;69.22;33.85;;;27.00;85.70;;;;;;4204923;28;20040;-64
2022/01/26 13:12:47;;;;;;;67.70;35.10;;;26.90;85.90;;;;;;4204778;28;20036;-64
2022/01/26 13:15:05;;;;;;;58.75;34.17;;;26.90;86.10;;;;;;4205438;28;20530;-63
2022/01/26 13:24:10;;;;;;;72.95;37.67;;;26.90;86.70;;;;;;4189963;28;20083;-63
2022/01/26 13:26:32;;;;;;;69.43;37.33;;;26.80;86.40;;;;;;4204127;28;20047;-63